createdAt,value
2022-11-17T00:01:05.616Z,12.20
2022-11-17T00:06:15.138Z,10.90
2022-11-17T00:11:27.779Z,9.75
2022-11-17T00:16:32.932Z,9.77
2022-11-17T00:21:37.416Z,10.55
2022-11-17T00:27:01.596Z,11.43
2022-11-17T00:32:23.392Z,10.63
2022-11-17T00:37:34.845Z,10.65
2022-11-17T00:42:40.037Z,10.43
2022-11-17T00:47:53.160Z,10.60
2022-11-17T00:52:54.707Z,10.33
2022-11-17T00:58:16.911Z,9.93
2022-11-17T01:03:20.906Z,10.77
2022-11-17T01:08:24.713Z,11.23
2022-11-17T01:13:29.650Z,10.95
2022-11-17T01:18:31.261Z,12.25
2022-11-17T01:23:42.157Z,11.45
2022-11-17T01:28:49.519Z,11.43
2022-11-17T01:33:58.064Z,11.60
2022-11-17T01:39:06.943Z,11.77
2022-11-17T01:44:51.322Z,11.48
2022-11-17T01:50:01.675Z,10.98
2022-11-17T01:55:11.402Z,9.93
2022-11-17T02:00:18.033Z,10.48
2022-11-17T02:05:24.895Z,10.60
2022-11-17T02:10:33.835Z,10.52
2022-11-17T02:15:44.417Z,10.32
2022-11-17T02:21:25.213Z,10.93
2022-11-17T02:27:17.186Z,10.40
2022-11-17T02:33:01.189Z,10.95
2022-11-17T02:38:32.610Z,11.55
2022-11-17T02:44:23.096Z,9.82
2022-11-17T02:49:31.823Z,11.18
2022-11-17T02:54:35.600Z,10.48
2022-11-17T02:59:44.893Z,9.80
2022-11-17T03:05:12.037Z,10.02
2022-11-17T03:10:22.649Z,11.27
2022-11-17T03:15:36.208Z,10.13
2022-11-17T03:20:57.277Z,8.57
2022-11-17T03:26:29.431Z,10.52
2022-11-17T03:31:36.151Z,10.32
2022-11-17T03:36:43.358Z,9.98
2022-11-17T03:42:00.299Z,10.52
2022-11-17T03:47:06.108Z,10.80
2022-11-17T03:52:14.838Z,10.68
2022-11-17T03:57:26.061Z,9.52
2022-11-17T04:02:37.550Z,10.15
2022-11-17T04:07:45.349Z,10.07
2022-11-17T04:13:08.653Z,8.57
2022-11-17T04:18:25.035Z,8.63
2022-11-17T04:23:52.545Z,8.40
2022-11-17T04:28:56.573Z,9.18
2022-11-17T04:34:02.197Z,8.75
2022-11-17T04:39:13.854Z,8.48
2022-11-17T04:44:17.261Z,8.57
2022-11-17T04:49:24.699Z,8.43
2022-11-17T04:54:30.259Z,9.48
2022-11-17T04:59:44.748Z,9.05
2022-11-17T05:05:04.565Z,7.32
2022-11-17T05:10:13.831Z,7.47
2022-11-17T05:15:47.774Z,6.95
2022-11-17T05:20:56.763Z,9.00
2022-11-17T05:26:08.222Z,7.72
2022-11-17T05:31:13.018Z,9.02
2022-11-17T05:36:30.439Z,9.43
2022-11-17T05:41:32.298Z,6.93
2022-11-17T05:46:38.449Z,9.20
2022-11-17T05:51:41.771Z,8.63
2022-11-17T05:56:50.750Z,9.10
2022-11-17T06:02:17.028Z,8.93
2022-11-17T06:12:27.256Z,9.10
2022-11-17T06:17:38.933Z,8.85
2022-11-17T06:22:48.001Z,8.73
2022-11-17T06:27:55.145Z,8.82
2022-11-17T06:33:02.427Z,8.65
2022-11-17T06:38:09.782Z,9.27
2022-11-17T06:43:16.536Z,14.73
2022-11-17T06:48:27.054Z,9.63
2022-11-17T06:53:28.621Z,7.93
2022-11-17T06:58:36.013Z,8.18
2022-11-17T07:03:41.707Z,5.60
2022-11-17T07:08:45.573Z,7.47
2022-11-17T07:13:52.314Z,7.60
2022-11-17T07:18:53.920Z,7.55
2022-11-17T07:23:58.844Z,7.03
2022-11-17T07:29:07.737Z,9.07
2022-11-17T07:34:13.125Z,7.47
2022-11-17T07:44:30.335Z,6.85
2022-11-17T07:49:34.334Z,7.40
2022-11-17T07:54:35.839Z,6.13
2022-11-17T07:59:50.795Z,5.28
2022-11-17T08:04:52.321Z,5.43
2022-11-17T08:10:12.390Z,5.93
2022-11-17T08:15:17.008Z,6.22
2022-11-17T08:20:18.565Z,5.80
2022-11-17T08:25:29.438Z,6.72
2022-11-17T08:30:38.133Z,7.57
2022-11-17T08:35:43.847Z,7.60
2022-11-17T08:40:47.855Z,7.80
2022-11-17T08:45:49.369Z,8.88
2022-11-17T08:50:53.029Z,9.25
2022-11-17T08:55:58.021Z,8.70
2022-11-17T09:01:05.598Z,9.10
2022-11-17T09:06:07.410Z,8.88
2022-11-17T09:11:18.682Z,9.40
2022-11-17T09:16:25.291Z,9.73
2022-11-17T09:21:30.803Z,9.75
2022-11-17T09:26:40.743Z,10.43
2022-11-17T09:31:44.661Z,12.45
2022-11-17T09:36:51.203Z,11.43
2022-11-17T09:42:13.145Z,11.48
2022-11-17T09:47:29.794Z,11.77
2022-11-17T09:52:56.110Z,12.35
2022-11-17T09:58:30.930Z,11.27
2022-11-17T10:03:45.674Z,11.43
2022-11-17T10:08:55.942Z,10.93
2022-11-17T10:14:10.636Z,10.88
2022-11-17T10:19:18.907Z,10.65
2022-11-17T10:24:44.776Z,11.07
2022-11-17T10:35:22.479Z,11.35
2022-11-17T10:40:31.923Z,10.85
2022-11-17T10:45:44.039Z,11.02
2022-11-17T10:51:19.407Z,10.43
2022-11-17T10:56:24.906Z,11.23
2022-11-17T11:01:35.894Z,10.75
2022-11-17T11:06:41.999Z,10.15
2022-11-17T11:12:00.062Z,9.65
2022-11-17T11:17:23.737Z,9.38
2022-11-17T11:22:38.431Z,9.10
2022-11-17T11:28:21.734Z,8.88
2022-11-17T11:33:38.369Z,8.07
2022-11-17T11:39:01.986Z,7.13
2022-11-17T11:44:18.770Z,7.70
2022-11-17T11:49:33.967Z,6.88
2022-11-17T11:54:57.209Z,10.15
2022-11-17T12:00:05.008Z,9.30
2022-11-17T12:05:40.331Z,7.40
2022-11-17T12:11:00.179Z,6.10
2022-11-17T12:16:19.112Z,6.60
2022-11-17T12:21:29.554Z,7.10
2022-11-17T12:26:36.944Z,5.32
2022-11-17T12:31:45.973Z,5.40
2022-11-17T12:37:09.002Z,4.53
2022-11-17T12:42:13.190Z,5.05
2022-11-17T12:47:34.255Z,4.60
2022-11-17T12:52:39.161Z,3.25
2022-11-17T12:57:45.707Z,2.28
2022-11-17T13:03:15.468Z,2.20
2022-11-17T13:08:21.027Z,1.90
2022-11-17T13:13:29.210Z,1.50
2022-11-17T13:18:32.727Z,1.45
2022-11-17T13:23:48.113Z,1.27
2022-11-17T13:29:19.608Z,1.38
2022-11-17T13:34:27.615Z,1.17
2022-11-17T13:39:31.462Z,1.73
2022-11-17T13:44:35.593Z,1.50
2022-11-17T13:49:40.577Z,1.45
2022-11-17T13:54:46.584Z,1.65
2022-11-17T13:59:48.492Z,1.60
2022-11-17T14:05:09.331Z,1.83
2022-11-17T14:10:17.188Z,1.92
2022-11-17T14:15:22.980Z,2.53
2022-11-17T14:20:26.903Z,2.40
2022-11-17T14:25:50.096Z,2.13
2022-11-17T14:30:55.758Z,1.20
2022-11-17T14:36:10.555Z,2.40
2022-11-17T14:41:21.388Z,1.85
2022-11-17T14:46:27.221Z,2.03
2022-11-17T14:51:34.487Z,2.17
2022-11-17T14:56:37.917Z,2.00
2022-11-17T15:01:39.583Z,2.20
2022-11-17T15:06:42.465Z,3.85
2022-11-17T15:11:56.135Z,6.22
2022-11-17T15:16:59.858Z,5.22
2022-11-17T15:22:06.858Z,3.65
2022-11-17T15:27:11.124Z,3.95
2022-11-17T15:32:21.334Z,7.00
2022-11-17T15:37:25.284Z,5.85
2022-11-17T15:42:28.893Z,3.60
2022-11-17T15:47:38.946Z,2.85
2022-11-17T15:53:03.092Z,3.15
2022-11-17T15:58:04.725Z,2.35
2022-11-17T16:03:06.286Z,2.85
2022-11-17T16:08:10.383Z,3.60
2022-11-17T16:13:12.188Z,4.25
2022-11-17T16:18:16.891Z,6.38
2022-11-17T16:23:20.075Z,6.80
2022-11-17T16:28:24.385Z,7.05
2022-11-17T16:33:26.265Z,6.40
2022-11-17T16:38:42.333Z,5.63
2022-11-17T16:43:49.891Z,5.55
2022-11-17T16:48:59.095Z,5.88
2022-11-17T16:54:06.999Z,6.40
2022-11-17T16:59:12.071Z,6.35
2022-11-17T17:04:16.880Z,11.50
2022-11-17T17:09:23.224Z,7.45
2022-11-17T17:14:34.392Z,8.55
2022-11-17T17:19:39.472Z,9.43
2022-11-17T17:24:54.576Z,9.73
2022-11-17T17:30:00.503Z,7.55
2022-11-17T17:35:04.525Z,8.38
2022-11-17T17:40:13.920Z,7.05
2022-11-17T17:45:18.066Z,7.70
2022-11-17T17:50:20.770Z,8.07
2022-11-17T17:55:26.574Z,7.57
2022-11-17T18:00:30.407Z,9.02
2022-11-17T18:05:34.062Z,8.00
2022-11-17T18:10:41.767Z,8.68
2022-11-17T18:15:43.302Z,8.75
2022-11-17T18:20:49.700Z,9.18
2022-11-17T18:25:53.870Z,8.85
2022-11-17T18:31:05.414Z,7.97
2022-11-17T18:36:14.086Z,7.30
2022-11-17T18:41:33.879Z,6.90
2022-11-17T18:46:45.843Z,6.90
2022-11-17T18:51:56.618Z,6.68
2022-11-17T18:57:00.127Z,7.25
2022-11-17T19:02:03.810Z,6.43
2022-11-17T19:07:05.442Z,6.63
2022-11-17T19:12:16.209Z,7.43
2022-11-17T19:17:17.816Z,7.53
2022-11-17T19:22:20.129Z,7.78
2022-11-17T19:27:24.139Z,7.88
2022-11-17T19:32:25.758Z,7.65
2022-11-17T19:37:28.295Z,8.10
2022-11-17T19:42:35.156Z,6.90
2022-11-17T19:47:42.813Z,6.97
2022-11-17T19:52:48.445Z,6.70
2022-11-17T19:57:53.670Z,6.60
2022-11-17T20:02:55.224Z,7.38
2022-11-17T20:07:58.854Z,7.70
2022-11-17T20:13:00.440Z,7.32
2022-11-17T20:18:04.014Z,7.85
2022-11-17T20:23:10.050Z,8.38
2022-11-17T20:28:38.904Z,7.85
2022-11-17T20:33:42.591Z,8.55
2022-11-17T20:38:44.387Z,8.48
2022-11-17T20:43:48.710Z,9.27
2022-11-17T20:48:50.867Z,10.48
2022-11-17T20:53:54.228Z,9.75
2022-11-17T20:58:55.927Z,10.07
2022-11-17T21:03:58.291Z,10.02
2022-11-17T21:09:00.103Z,10.98
2022-11-17T21:14:02.783Z,12.00
2022-11-17T21:19:06.416Z,10.57
2022-11-17T21:24:09.011Z,10.88
2022-11-17T21:29:11.143Z,11.52
2022-11-17T21:34:17.405Z,12.35
2022-11-17T21:39:19.902Z,11.27
2022-11-17T21:44:22.426Z,10.90
2022-11-17T21:49:24.612Z,9.73
2022-11-17T21:54:26.391Z,9.55
2022-11-17T21:59:29.601Z,8.70
2022-11-17T22:04:31.451Z,8.70
2022-11-17T22:09:33.996Z,9.10
2022-11-17T22:14:36.341Z,9.23
2022-11-17T22:19:38.026Z,9.63
2022-11-17T22:24:40.152Z,9.65
2022-11-17T22:29:42.443Z,9.85
2022-11-17T22:34:45.446Z,10.38
2022-11-17T22:39:47.308Z,10.05
2022-11-17T22:44:49.093Z,9.50
2022-11-17T22:49:53.819Z,9.85
2022-11-17T22:54:55.688Z,11.10
2022-11-17T22:59:57.297Z,11.50
2022-11-17T23:04:59.308Z,11.98
2022-11-17T23:10:04.266Z,9.68
2022-11-17T23:15:07.181Z,9.23
2022-11-17T23:20:10.048Z,8.35
2022-11-17T23:25:14.352Z,7.65
2022-11-17T23:30:16.391Z,7.10
2022-11-17T23:35:18.768Z,7.00
2022-11-17T23:40:20.367Z,6.55
2022-11-17T23:45:22.248Z,6.63
2022-11-17T23:50:23.810Z,7.38
2022-11-17T23:55:26.704Z,7.70
